Time;durP1;ratioP1;P1;durP2;ratioP2;P2;SDS_P1;SDS_P2;PMS_P1;PMS_P2;Temp;Humidity;BMP_temperature;BMP_pressure;BME280_temperature;BME280_humidity;BME280_pressure;Samples;Min_cycle;Max_cycle;Signal;HPM_P1;HPM_P2
2021/09/04 00:02:13;;;;;;;8.80;6.43;;;;;;;16.06;78.62;96829.09;5037102;28;20558;-60
2021/09/04 00:04:40;;;;;;;9.33;7.17;;;;;;;16.10;78.79;96816.97;5049597;28;20501;-61
2021/09/04 00:07:07;;;;;;;11.63;7.10;;;;;;;16.31;77.92;96823.09;5043946;28;20201;-60
2021/09/04 00:09:33;;;;;;;11.40;6.90;;;;;;;16.09;78.93;96819.84;5035739;28;20179;-60
2021/09/04 00:12:00;;;;;;;8.80;7.30;;;;;;;16.21;78.43;96820.44;5048369;28;20588;-61
2021/09/04 00:14:26;;;;;;;9.93;6.93;;;;;;;16.08;79.34;96821.69;5035373;28;20198;-61
2021/09/04 00:16:51;;;;;;;8.00;6.63;;;;;;;15.96;79.76;96826.41;5034209;28;20178;-61
2021/09/04 00:19:17;;;;;;;10.57;6.63;;;;;;;15.99;80.21;96819.84;5048937;28;20194;-61
2021/09/04 00:21:42;;;;;;;9.10;6.53;;;;;;;16.09;79.32;96817.22;5036547;28;20647;-60
2021/09/04 00:24:07;;;;;;;9.23;6.73;;;;;;;15.84;80.53;96817.13;5051753;28;20206;-60
2021/09/04 00:26:33;;;;;;;9.00;6.73;;;;;;;16.04;80.08;96806.63;5043335;28;20269;-60
2021/09/04 00:28:58;;;;;;;9.47;7.50;;;;;;;16.05;79.63;96805.56;5038648;28;20189;-60
2021/09/04 00:31:23;;;;;;;10.77;7.10;;;;;;;16.04;79.57;96809.28;5048105;28;20269;-63
2021/09/04 00:33:49;;;;;;;9.87;7.27;;;;;;;15.86;80.45;96810.53;5037226;28;20186;-60
2021/09/04 00:36:14;;;;;;;7.87;6.47;;;;;;;15.78;80.83;96809.16;5046544;28;20190;-61
2021/09/04 00:38:40;;;;;;;8.40;6.93;;;;;;;15.83;80.70;96812.91;5040453;28;20210;-60
2021/09/04 00:41:05;;;;;;;10.40;6.83;;;;;;;15.89;80.24;96809.19;5034082;28;20182;-60
2021/09/04 00:43:31;;;;;;;8.27;6.77;;;;;;;15.67;81.32;96812.81;5034388;28;20238;-61
2021/09/04 00:46:08;;;;;;;7.57;6.60;;;;;;;15.56;81.98;96808.53;5048067;28;20194;-60
2021/09/04 00:48:34;;;;;;;8.23;6.63;;;;;;;15.70;81.25;96804.41;5044971;28;20213;-61
2021/09/04 00:50:59;;;;;;;10.77;7.43;;;;;;;15.65;81.52;96809.66;5037706;28;20214;-60
2021/09/04 00:53:25;;;;;;;10.07;7.20;;;;;;;15.64;81.89;96808.06;5043857;28;20174;-60
2021/09/04 00:55:50;;;;;;;10.80;7.30;;;;;;;15.64;81.71;96812.56;5036555;28;20187;-60
2021/09/04 00:58:16;;;;;;;12.27;7.37;;;;;;;15.71;81.21;96808.63;5047348;28;20241;-60
2021/09/04 01:00:41;;;;;;;12.47;7.83;;;;;;;15.63;81.55;96805.69;5039580;28;20184;-61
2021/09/04 01:03:07;;;;;;;11.53;7.30;;;;;;;15.64;81.20;96810.72;5052808;28;20689;-62
2021/09/04 01:05:33;;;;;;;11.33;7.80;;;;;;;15.68;81.00;96805.69;5035561;28;20218;-63
2021/09/04 01:07:58;;;;;;;8.87;6.90;;;;;;;15.61;80.80;96805.94;5046857;28;20221;-62
2021/09/04 01:10:26;;;;;;;7.97;6.70;;;;;;;15.76;80.24;96808.66;5039151;28;20186;-70
2021/09/04 01:12:51;;;;;;;10.00;6.83;;;;;;;15.73;80.50;96808.34;5043813;28;20190;-61
2021/09/04 01:15:19;;;;;;;9.00;7.07;;;;;;;15.55;80.91;96808.81;5048677;28;20196;-60
2021/09/04 01:17:45;;;;;;;8.07;6.63;;;;;;;15.58;80.57;96809.09;5046547;28;20223;-60
2021/09/04 01:20:11;;;;;;;8.47;6.23;;;;;;;15.32;82.16;96802.84;5048383;28;20225;-60
2021/09/04 01:22:36;;;;;;;10.87;7.07;;;;;;;15.29;81.92;96795.44;5047767;28;20689;-62
2021/09/04 01:25:05;;;;;;;8.90;6.73;;;;;;;15.30;81.91;96799.69;5039544;28;20211;-62
2021/09/04 01:27:33;;;;;;;9.63;6.80;;;;;;;15.31;82.16;96790.72;5039036;28;20181;-63
2021/09/04 01:29:59;;;;;;;8.17;6.13;;;;;;;15.37;81.78;96794.97;5020846;28;20244;-60
2021/09/04 01:32:24;;;;;;;8.63;7.10;;;;;;;15.31;82.13;96803.91;5048792;28;20511;-68
2021/09/04 01:34:49;;;;;;;10.57;6.80;;;;;;;15.24;82.35;96794.63;5035119;28;20216;-63
2021/09/04 01:37:15;;;;;;;8.53;6.47;;;;;;;15.15;82.64;96796.16;5038483;28;20269;-63
2021/09/04 01:39:40;;;;;;;9.73;6.07;;;;;;;15.24;82.13;96790.13;5032309;28;20183;-60
2021/09/04 01:42:05;;;;;;;9.47;6.60;;;;;;;15.39;81.31;96789.41;5048465;28;20219;-60
2021/09/04 01:44:31;;;;;;;9.20;6.80;;;;;;;15.38;80.98;96783.31;5030544;28;20221;-60
2021/09/04 01:46:56;;;;;;;11.43;6.50;;;;;;;15.25;81.73;96790.94;5037013;28;20554;-60
2021/09/04 01:49:22;;;;;;;8.57;6.70;;;;;;;15.18;81.92;96791.16;5046437;28;20235;-68
2021/09/04 01:51:47;;;;;;;8.70;6.70;;;;;;;15.23;81.80;96783.25;5045226;28;20175;-60
2021/09/04 01:54:13;;;;;;;12.07;6.63;;;;;;;15.24;81.29;96782.22;5045475;28;20690;-62
2021/09/04 01:56:38;;;;;;;9.03;6.43;;;;;;;15.22;81.34;96778.22;5035466;28;20653;-60
2021/09/04 01:59:03;;;;;;;9.17;6.93;;;;;;;15.32;80.71;96775.66;5042825;28;20194;-60
2021/09/04 02:01:29;;;;;;;9.80;6.87;;;;;;;15.03;81.99;96774.44;5038018;28;20574;-66
2021/09/04 02:03:54;;;;;;;9.27;6.63;;;;;;;15.15;81.58;96777.69;5036599;28;20206;-61
2021/09/04 02:06:19;;;;;;;9.27;6.80;;;;;;;15.14;81.45;96770.81;5038121;28;20524;-61
2021/09/04 02:08:45;;;;;;;7.20;6.13;;;;;;;15.12;81.60;96778.97;5044498;28;20193;-61
2021/09/04 02:11:10;;;;;;;9.10;6.97;;;;;;;15.11;81.96;96780.00;5040198;28;20209;-61
2021/09/04 02:13:36;;;;;;;9.33;7.17;;;;;;;15.00;82.49;96767.81;5042185;28;20200;-61
2021/09/04 02:16:01;;;;;;;10.17;7.40;;;;;;;14.94;82.66;96766.19;5048612;28;20280;-61
2021/09/04 02:18:29;;;;;;;10.07;7.37;;;;;;;14.99;82.61;96772.28;5033993;28;20605;-69
2021/09/04 02:20:54;;;;;;;8.90;6.93;;;;;;;14.90;83.26;96770.38;5046532;28;20188;-61
2021/09/04 02:23:19;;;;;;;8.70;6.60;;;;;;;14.83;83.49;96780.34;5042793;28;20186;-61
2021/09/04 02:25:45;;;;;;;9.07;7.07;;;;;;;14.77;83.71;96776.09;5038365;28;20266;-61
2021/09/04 02:28:14;;;;;;;9.67;6.70;;;;;;;14.68;84.33;96778.41;5047505;28;20197;-61
2021/09/04 02:30:39;;;;;;;8.13;6.83;;;;;;;14.62;84.55;96775.97;5034162;28;20182;-61
2021/09/04 02:33:05;;;;;;;8.63;7.10;;;;;;;14.82;83.56;96769.00;5044051;28;20183;-61
2021/09/04 02:35:30;;;;;;;8.60;6.77;;;;;;;14.78;83.98;96769.75;5038619;28;20659;-61
2021/09/04 02:37:56;;;;;;;10.80;7.57;;;;;;;14.69;84.50;96771.28;5039103;28;20182;-61
2021/09/04 02:40:21;;;;;;;9.60;7.60;;;;;;;14.58;85.49;96767.78;5032186;28;20647;-61
2021/09/04 02:42:46;;;;;;;9.27;7.70;;;;;;;14.70;84.63;96771.03;5037934;28;20466;-62
2021/09/04 02:45:12;;;;;;;10.87;7.30;;;;;;;14.63;85.27;96769.66;5042181;28;20202;-61
2021/09/04 02:47:38;;;;;;;10.33;7.67;;;;;;;14.66;85.46;96767.31;5036140;28;20197;-62
2021/09/04 02:50:04;;;;;;;12.30;7.90;;;;;;;14.76;85.01;96769.25;5045749;28;20625;-61
2021/09/04 02:52:29;;;;;;;9.77;7.63;;;;;;;14.50;86.37;96765.59;5042726;28;20216;-61
2021/09/04 02:54:55;;;;;;;12.60;7.73;;;;;;;14.49;86.50;96771.91;5033214;28;20187;-64
2021/09/04 02:57:20;;;;;;;11.20;7.97;;;;;;;14.51;86.46;96762.72;5046451;28;20481;-61
2021/09/04 02:59:46;;;;;;;11.63;8.53;;;;;;;14.41;87.03;96770.53;5036432;28;20178;-61
2021/09/04 03:02:14;;;;;;;12.83;8.50;;;;;;;14.40;87.41;96763.69;5043792;28;20223;-65
2021/09/04 03:04:39;;;;;;;11.93;8.63;;;;;;;14.32;87.89;96766.72;5031226;28;20239;-61
2021/09/04 03:07:04;;;;;;;12.23;8.20;;;;;;;14.37;87.50;96768.66;5036798;28;20253;-61
2021/09/04 03:09:30;;;;;;;11.20;8.23;;;;;;;14.37;87.86;96766.03;5039485;28;20189;-61
2021/09/04 03:11:55;;;;;;;8.73;7.67;;;;;;;14.31;88.26;96772.28;5038454;28;20680;-61
2021/09/04 03:14:21;;;;;;;11.87;8.53;;;;;;;14.31;87.80;96757.25;5040341;28;20199;-65
2021/09/04 03:16:46;;;;;;;11.43;8.60;;;;;;;14.17;88.61;96761.31;5032695;28;20185;-61
2021/09/04 03:19:12;;;;;;;13.07;9.07;;;;;;;14.23;88.72;96755.06;5036314;28;20189;-61
2021/09/04 03:21:37;;;;;;;11.77;8.67;;;;;;;14.34;87.93;96759.38;5043485;28;20186;-61
2021/09/04 03:24:03;;;;;;;11.17;7.93;;;;;;;14.15;89.11;96760.78;5047184;28;20217;-61
2021/09/04 03:26:28;;;;;;;12.93;8.60;;;;;;;14.21;88.71;96751.09;5036948;28;20229;-69
2021/09/04 03:28:53;;;;;;;10.10;7.67;;;;;;;14.28;88.81;96760.38;5046607;28;20194;-68
2021/09/04 03:31:19;;;;;;;11.60;8.33;;;;;;;14.15;89.66;96755.53;5034328;28;20209;-61
2021/09/04 03:33:44;;;;;;;11.13;8.17;;;;;;;14.18;89.73;96754.22;5040137;28;20670;-61
2021/09/04 03:36:10;;;;;;;12.83;8.83;;;;;;;14.15;90.22;96756.28;5051002;28;20638;-61
2021/09/04 03:38:35;;;;;;;11.17;8.63;;;;;;;14.09;90.94;96751.25;5043945;28;20190;-61
2021/09/04 03:41:01;;;;;;;11.70;8.40;;;;;;;14.34;89.32;96756.72;5034065;28;20617;-62
2021/09/04 03:43:26;;;;;;;11.90;8.67;;;;;;;14.32;89.23;96744.88;5019004;28;20667;-69
2021/09/04 03:45:51;;;;;;;12.60;9.30;;;;;;;14.34;89.15;96748.03;5030630;28;20638;-61
2021/09/04 03:48:17;;;;;;;11.13;9.27;;;;;;;14.12;90.50;96753.38;5039815;28;20186;-64
2021/09/04 03:50:43;;;;;;;13.20;9.83;;;;;;;14.04;91.59;96753.84;5041346;28;20262;-62
2021/09/04 03:53:08;;;;;;;11.10;8.97;;;;;;;14.00;91.71;96750.88;5034212;28;20236;-61
2021/09/04 03:55:34;;;;;;;15.70;9.83;;;;;;;13.97;92.48;96753.22;5041432;28;20195;-61
2021/09/04 03:57:59;;;;;;;12.63;9.57;;;;;;;13.93;92.59;96750.28;5035574;28;20187;-61
2021/09/04 04:00:25;;;;;;;14.93;9.43;;;;;;;13.78;93.69;96751.97;5037180;28;20182;-67
2021/09/04 04:02:50;;;;;;;14.20;9.37;;;;;;;13.91;93.00;96752.38;5032143;28;20182;-61
2021/09/04 04:05:16;;;;;;;13.73;9.67;;;;;;;13.92;93.18;96753.19;5044305;28;20249;-61
2021/09/04 04:07:41;;;;;;;15.80;10.33;;;;;;;13.90;93.13;96753.41;5030072;28;20265;-62
2021/09/04 04:10:07;;;;;;;11.90;9.40;;;;;;;14.01;92.30;96754.31;5042845;28;20220;-61
2021/09/04 04:12:33;;;;;;;12.97;9.30;;;;;;;13.89;93.23;96751.03;5036247;28;20269;-61
2021/09/04 04:14:58;;;;;;;14.87;9.30;;;;;;;13.84;93.59;96751.78;5042713;28;20261;-61
2021/09/04 04:17:24;;;;;;;13.87;9.63;;;;;;;13.77;94.13;96750.38;5043006;28;20194;-61
2021/09/04 04:19:49;;;;;;;15.20;9.90;;;;;;;13.74;94.83;96749.84;5041207;28;20186;-61
2021/09/04 04:22:15;;;;;;;13.37;9.63;;;;;;;13.82;94.78;96745.19;5037206;28;20175;-61
2021/09/04 04:24:40;;;;;;;15.27;10.10;;;;;;;13.73;95.38;96744.81;5048092;28;20251;-61
2021/09/04 04:27:06;;;;;;;13.33;9.97;;;;;;;13.81;94.65;96744.38;5040953;28;20186;-61
2021/09/04 04:29:32;;;;;;;15.10;10.23;;;;;;;13.81;94.83;96740.94;5034834;28;20183;-65
2021/09/04 04:31:57;;;;;;;16.50;10.67;;;;;;;13.85;94.47;96748.09;5038059;28;20205;-61
2021/09/04 04:34:23;;;;;;;14.53;10.23;;;;;;;13.77;94.48;96751.16;5041485;28;20205;-61
2021/09/04 04:36:49;;;;;;;15.30;10.53;;;;;;;13.72;94.41;96753.75;5037166;28;20182;-61
2021/09/04 04:39:14;;;;;;;16.43;10.87;;;;;;;13.65;95.00;96761.84;5041613;28;20205;-61
2021/09/04 04:41:40;;;;;;;13.17;9.60;;;;;;;13.65;95.11;96753.16;5049233;28;20264;-61
2021/09/04 04:44:05;;;;;;;16.00;10.30;;;;;;;13.71;94.98;96754.78;5044217;28;20573;-60
2021/09/04 04:46:31;;;;;;;14.57;10.53;;;;;;;13.74;94.19;96755.09;5037432;28;20671;-68
2021/09/04 04:48:56;;;;;;;12.60;9.50;;;;;;;13.74;94.01;96754.31;5040912;28;20651;-61
2021/09/04 04:51:22;;;;;;;12.83;9.37;;;;;;;13.68;94.29;96755.28;5040630;28;20540;-63
2021/09/04 04:53:47;;;;;;;13.03;9.07;;;;;;;13.70;94.07;96755.84;5038732;28;20182;-61
2021/09/04 04:56:13;;;;;;;12.43;8.87;;;;;;;13.73;93.94;96757.97;5048090;28;20175;-61
2021/09/04 04:58:38;;;;;;;11.93;8.23;;;;;;;13.73;93.90;96761.41;5041988;28;20255;-61
2021/09/04 05:01:04;;;;;;;13.03;9.00;;;;;;;13.73;94.22;96760.59;5042810;28;20651;-61
2021/09/04 05:03:29;;;;;;;12.47;8.53;;;;;;;13.90;92.85;96756.06;5049250;28;20198;-69
2021/09/04 05:05:55;;;;;;;10.37;8.17;;;;;;;13.97;92.36;96764.56;5048047;28;20266;-61
2021/09/04 05:08:20;;;;;;;10.40;7.80;;;;;;;14.20;91.12;96758.19;5038484;28;20554;-61
2021/09/04 05:10:46;;;;;;;11.67;7.93;;;;;;;14.34;90.15;96761.22;5052127;28;20185;-61
2021/09/04 05:13:11;;;;;;;11.93;8.57;;;;;;;14.47;89.58;96766.09;5041032;28;20265;-61
2021/09/04 05:15:37;;;;;;;11.37;8.10;;;;;;;14.72;88.17;96762.84;5041377;28;20232;-62
2021/09/04 05:18:02;;;;;;;9.97;7.73;;;;;;;14.81;87.76;96767.44;5049196;28;20210;-62
2021/09/04 05:20:27;;;;;;;12.77;8.37;;;;;;;15.03;86.40;96764.66;5033966;28;20175;-61
2021/09/04 05:22:53;;;;;;;12.80;7.97;;;;;;;15.21;85.35;96763.47;5045506;28;20204;-61
2021/09/04 05:25:18;;;;;;;7.90;6.50;;;;;;;15.33;84.15;96762.19;5050253;28;20201;-62
2021/09/04 05:27:44;;;;;;;9.23;6.73;;;;;;;15.46;83.55;96770.69;5047640;28;20186;-61
2021/09/04 05:30:10;;;;;;;9.30;6.40;;;;;;;15.68;81.76;96774.78;5040446;28;20268;-61
2021/09/04 05:32:36;;;;;;;8.87;6.07;;;;;;;15.86;80.72;96770.09;5043878;28;20703;-61
2021/09/04 05:35:02;;;;;;;7.87;6.43;;;;;;;15.84;80.70;96762.41;5048793;28;20178;-67
2021/09/04 05:37:28;;;;;;;9.50;6.83;;;;;;;15.95;80.76;96768.50;5040635;28;20205;-61
2021/09/04 05:39:54;;;;;;;7.97;6.60;;;;;;;16.05;80.18;96764.03;5043745;28;20193;-61
2021/09/04 05:42:20;;;;;;;9.57;6.00;;;;;;;16.28;78.89;96764.59;5051928;28;20234;-61
2021/09/04 05:44:45;;;;;;;11.47;6.67;;;;;;;16.00;80.28;96766.69;5050200;28;20251;-61
2021/09/04 05:47:11;;;;;;;7.97;6.10;;;;;;;16.32;78.72;96765.69;5049592;28;20272;-61
2021/09/04 05:49:36;;;;;;;7.67;6.33;;;;;;;16.51;77.97;96762.25;5040589;28;20214;-61
2021/09/04 05:52:02;;;;;;;11.93;6.40;;;;;;;16.60;77.34;96768.66;5050727;28;20614;-61
2021/09/04 05:54:28;;;;;;;8.17;6.30;;;;;;;16.58;77.14;96767.28;5047972;28;20546;-61
2021/09/04 05:56:53;;;;;;;9.70;6.53;;;;;;;16.76;75.86;96764.13;5032398;28;20179;-61
2021/09/04 05:59:19;;;;;;;8.60;6.50;;;;;;;16.78;76.17;96763.84;5043042;28;20214;-61
2021/09/04 06:01:44;;;;;;;9.83;6.00;;;;;;;16.84;75.77;96762.78;5044545;28;20206;-61
2021/09/04 06:04:10;;;;;;;9.77;6.77;;;;;;;16.82;75.77;96757.78;5046400;28;20683;-61
2021/09/04 06:06:35;;;;;;;8.70;6.90;;;;;;;16.88;75.56;96762.00;5035545;28;20528;-61
2021/09/04 06:09:02;;;;;;;7.43;6.37;;;;;;;16.85;75.85;96761.72;5047279;28;20181;-61
2021/09/04 06:11:29;;;;;;;8.20;6.57;;;;;;;16.86;75.97;96760.69;5035443;28;20182;-61
2021/09/04 06:13:54;;;;;;;12.47;7.03;;;;;;;16.85;75.67;96764.38;5036121;28;20187;-61
2021/09/04 06:16:20;;;;;;;8.50;6.17;;;;;;;16.91;75.94;96763.31;5035273;28;20202;-61
2021/09/04 06:18:45;;;;;;;8.60;6.70;;;;;;;17.10;75.20;96761.72;5038422;28;20182;-61
2021/09/04 06:21:10;;;;;;;8.83;6.60;;;;;;;17.25;74.08;96764.31;5045582;28;20276;-61
2021/09/04 06:23:36;;;;;;;8.60;6.53;;;;;;;17.42;74.05;96764.00;5035773;28;20696;-69
2021/09/04 06:26:01;;;;;;;10.73;6.43;;;;;;;17.57;73.04;96761.28;5037981;28;20183;-61
2021/09/04 06:28:26;;;;;;;9.63;6.70;;;;;;;17.63;73.20;96770.03;5049422;28;20188;-61
2021/09/04 06:30:52;;;;;;;8.47;5.80;;;;;;;17.77;72.90;96769.19;5040191;28;20182;-62
2021/09/04 06:33:17;;;;;;;10.27;6.70;;;;;;;17.86;72.91;96772.06;5045569;28;20186;-62
2021/09/04 06:35:42;;;;;;;9.20;6.60;;;;;;;17.98;72.66;96775.19;5031298;28;20244;-61
2021/09/04 06:38:08;;;;;;;10.10;7.20;;;;;;;18.21;71.65;96771.06;5045524;28;20189;-61
2021/09/04 06:40:33;;;;;;;9.13;6.50;;;;;;;18.32;71.03;96769.94;5045420;28;20220;-67
2021/09/04 06:42:59;;;;;;;7.83;6.20;;;;;;;18.23;71.22;96775.03;5048719;28;20237;-61
2021/09/04 06:45:24;;;;;;;7.97;6.57;;;;;;;18.23;71.50;96776.88;5046801;28;20205;-61
2021/09/04 06:47:49;;;;;;;8.38;6.10;;;;;;;18.14;72.21;96775.88;5048413;28;20757;-61
2021/09/04 06:50:15;;;;;;;7.57;6.70;;;;;;;18.37;71.09;96777.88;5035701;28;20214;-61
2021/09/04 06:52:40;;;;;;;7.97;6.53;;;;;;;18.59;70.72;96774.81;5039977;28;20264;-61
2021/09/04 06:55:06;;;;;;;7.83;6.13;;;;;;;18.63;70.69;96776.63;5036623;28;20186;-62
2021/09/04 06:57:32;;;;;;;8.32;6.25;;;;;;;18.76;70.39;96769.09;5042152;28;20251;-62
2021/09/04 06:59:57;;;;;;;8.70;6.47;;;;;;;19.00;69.34;96772.63;5017752;28;20193;-61
2021/09/04 07:02:23;;;;;;;8.85;6.55;;;;;;;19.13;68.59;96766.63;5034037;28;20237;-61
2021/09/04 07:04:48;;;;;;;9.20;6.95;;;;;;;18.97;69.24;96773.94;5030599;28;20208;-62
2021/09/04 07:07:14;;;;;;;9.07;6.13;;;;;;;19.05;69.17;96772.56;5034273;28;20639;-63
2021/09/04 07:09:39;;;;;;;8.38;6.25;;;;;;;19.11;69.18;96774.09;5037980;28;20210;-61
2021/09/04 07:12:04;;;;;;;9.25;6.90;;;;;;;19.22;68.90;96778.25;5038177;28;20745;-61
2021/09/04 07:14:30;;;;;;;7.80;6.18;;;;;;;19.21;69.14;96784.63;5034176;28;20868;-62
2021/09/04 07:16:55;;;;;;;7.65;6.47;;;;;;;19.22;69.32;96783.56;5031844;28;20178;-61
2021/09/04 07:19:20;;;;;;;8.30;6.38;;;;;;;19.48;68.51;96781.44;5036161;28;20569;-62
2021/09/04 07:21:46;;;;;;;5.97;5.32;;;;;;;19.56;68.28;96782.69;5044397;28;20231;-62
2021/09/04 07:24:11;;;;;;;6.97;6.28;;;;;;;19.68;67.90;96788.38;5044222;28;20331;-62
2021/09/04 07:26:37;;;;;;;8.27;6.30;;;;;;;19.82;66.81;96784.75;5048217;28;20186;-69
2021/09/04 07:29:02;;;;;;;8.30;6.63;;;;;;;19.90;66.77;96786.75;5028244;28;20189;-62
2021/09/04 07:31:28;;;;;;;8.18;5.60;;;;;;;19.86;65.81;96790.28;5034985;28;20220;-62
2021/09/04 07:39:22;;;;;;;7.53;5.32;;;;;;;20.26;64.20;96795.06;5259981;23;20252;-60
2021/09/04 07:41:47;;;;;;;8.93;6.40;;;;;;;20.36;63.88;96786.19;4991017;28;20202;-62
2021/09/04 07:44:13;;;;;;;8.68;5.60;;;;;;;20.25;64.44;96796.16;5005544;28;20203;-65
2021/09/04 07:46:38;;;;;;;6.47;5.10;;;;;;;20.34;63.72;96796.31;4995139;28;20199;-68
2021/09/04 07:49:04;;;;;;;9.73;5.57;;;;;;;20.41;64.90;96801.28;5005639;28;20180;-63
2021/09/04 07:51:29;;;;;;;10.07;5.85;;;;;;;20.33;64.06;96792.09;4998738;28;20184;-63
2021/09/04 07:53:54;;;;;;;7.88;6.15;;;;;;;20.42;63.03;96797.53;5006205;28;20301;-63
2021/09/04 07:56:20;;;;;;;8.07;5.75;;;;;;;20.40;62.27;96792.50;5002054;28;20633;-62
2021/09/04 07:58:45;;;;;;;7.97;5.03;;;;;;;20.52;61.77;96795.53;5011202;28;20184;-63
2021/09/04 08:01:10;;;;;;;7.10;5.40;;;;;;;20.81;61.35;96800.66;5008293;28;20197;-63
2021/09/04 08:03:36;;;;;;;7.50;5.32;;;;;;;20.62;61.10;96797.22;5005732;28;20271;-63
2021/09/04 08:06:01;;;;;;;6.13;5.10;;;;;;;20.72;61.45;96805.09;5001565;28;20529;-63
2021/09/04 08:08:27;;;;;;;9.30;6.10;;;;;;;20.71;61.59;96803.50;5000674;28;20196;-62
2021/09/04 08:10:52;;;;;;;6.80;5.13;;;;;;;20.90;60.49;96812.22;5003101;28;20602;-63
2021/09/04 08:13:18;;;;;;;7.57;5.30;;;;;;;20.88;60.51;96811.75;5003317;28;20216;-63
2021/09/04 08:15:44;;;;;;;9.00;4.90;;;;;;;21.14;60.82;96802.25;5003381;28;20187;-62
2021/09/04 08:18:09;;;;;;;7.30;5.05;;;;;;;21.21;59.08;96809.09;5005482;28;20192;-61
2021/09/04 08:20:35;;;;;;;6.03;5.13;;;;;;;21.30;58.92;96804.66;5010231;28;20202;-63
2021/09/04 08:23:00;;;;;;;7.18;5.18;;;;;;;21.28;58.51;96812.97;5007584;28;20219;-61
2021/09/04 08:25:26;;;;;;;7.85;5.00;;;;;;;21.54;57.93;96800.72;5011249;28;20203;-63
2021/09/04 08:27:51;;;;;;;7.55;5.25;;;;;;;21.51;57.77;96808.56;5008901;28;20294;-62
2021/09/04 08:30:17;;;;;;;7.65;5.15;;;;;;;21.53;57.83;96819.69;5002797;28;20639;-63
2021/09/04 08:32:42;;;;;;;7.57;5.28;;;;;;;21.62;58.13;96807.28;5009412;28;20183;-62
2021/09/04 08:35:08;;;;;;;5.85;4.72;;;;;;;21.82;57.93;96806.84;5012750;28;20187;-63
2021/09/04 08:37:33;;;;;;;7.63;4.97;;;;;;;22.03;57.38;96809.13;5004522;28;20191;-62
2021/09/04 08:39:59;;;;;;;7.28;5.35;;;;;;;22.21;57.08;96809.00;4999896;28;20231;-62
2021/09/04 08:42:24;;;;;;;7.40;4.85;;;;;;;22.10;57.04;96812.19;5000690;28;20179;-62
2021/09/04 08:44:50;;;;;;;7.93;4.90;;;;;;;22.23;57.00;96814.06;5003549;28;20269;-63
2021/09/04 08:47:18;;;;;;;6.32;4.60;;;;;;;22.16;57.39;96819.00;5006026;28;20203;-61
2021/09/04 08:49:46;;;;;;;6.15;4.55;;;;;;;22.20;56.20;96817.31;4997990;28;20184;-63
2021/09/04 08:52:12;;;;;;;6.32;4.35;;;;;;;22.23;57.01;96817.53;4997673;28;20184;-66
2021/09/04 08:54:37;;;;;;;5.07;4.20;;;;;;;22.24;56.97;96813.72;5005093;28;20188;-62
2021/09/04 08:57:03;;;;;;;5.47;4.15;;;;;;;22.35;55.88;96816.97;5012669;28;20275;-63
2021/09/04 08:59:28;;;;;;;5.55;4.43;;;;;;;22.23;56.61;96825.53;5006554;28;20193;-62
2021/09/04 09:01:53;;;;;;;5.18;4.68;;;;;;;22.30;55.80;96809.88;5003707;28;20188;-62
2021/09/04 09:04:22;;;;;;;4.38;3.97;;;;;;;21.96;56.57;96820.22;5004066;28;20573;-62
2021/09/04 09:06:48;;;;;;;5.53;4.60;;;;;;;21.84;56.90;96817.25;5006075;28;20188;-61
2021/09/04 09:09:15;;;;;;;5.15;4.07;;;;;;;21.41;57.46;96814.03;5002743;28;20199;-62
2021/09/04 09:11:40;;;;;;;5.35;4.15;;;;;;;21.43;58.33;96818.00;5001129;28;20194;-62
2021/09/04 09:14:05;;;;;;;6.30;4.63;;;;;;;21.38;56.77;96825.31;5004411;28;20180;-62
2021/09/04 09:16:31;;;;;;;4.75;3.60;;;;;;;21.13;57.66;96827.31;4997889;28;20191;-62
2021/09/04 09:18:58;;;;;;;6.32;4.32;;;;;;;21.66;56.91;96824.25;4999884;28;20184;-62
2021/09/04 09:21:30;;;;;;;4.75;3.80;;;;;;;21.13;56.82;96829.19;5009691;28;20188;-62
2021/09/04 09:24:07;;;;;;;5.38;3.95;;;;;;;21.18;57.13;96829.13;5000630;28;20216;-62
2021/09/04 09:26:32;;;;;;;6.10;3.83;;;;;;;20.80;56.80;96833.72;4997907;28;20203;-63
2021/09/04 09:29:23;;;;;;;5.15;4.13;;;;;;;21.11;58.19;96842.03;4995008;28;20658;-67
2021/09/04 09:31:49;;;;;;;3.97;3.58;;;;;;;21.28;55.60;96833.50;5006139;28;20263;-62
2021/09/04 09:34:16;;;;;;;4.30;3.60;;;;;;;21.58;55.85;96825.72;5009103;28;20245;-62
2021/09/04 09:36:50;;;;;;;4.78;3.50;;;;;;;21.92;54.19;96825.31;5002453;28;20188;-62
2021/09/04 09:39:15;;;;;;;4.47;3.60;;;;;;;21.97;54.79;96819.13;5007891;28;20235;-61
2021/09/04 09:41:51;;;;;;;4.05;3.50;;;;;;;21.93;54.94;96816.25;4998029;28;20535;-62
2021/09/04 09:44:18;;;;;;;4.18;3.50;;;;;;;21.86;54.95;96817.72;5009082;28;20249;-61
2021/09/04 09:46:51;;;;;;;8.25;5.72;;;;;;;22.18;55.63;96814.16;5008137;28;20211;-63
2021/09/04 09:49:17;;;;;;;4.50;3.90;;;;;;;22.07;54.08;96821.56;5007020;28;20184;-62
2021/09/04 09:51:44;;;;;;;4.18;3.13;;;;;;;22.09;53.80;96818.63;5008398;28;20198;-61
2021/09/04 09:54:11;;;;;;;5.25;3.65;;;;;;;22.26;52.77;96824.91;5001617;28;20191;-61
2021/09/04 09:56:39;;;;;;;5.55;3.60;;;;;;;21.97;55.26;96824.47;4998266;28;20283;-64
2021/09/04 09:59:07;;;;;;;4.18;3.53;;;;;;;22.03;55.65;96819.81;5001567;28;20183;-61
2021/09/04 10:01:33;;;;;;;3.42;3.08;;;;;;;21.71;54.38;96815.34;5004385;28;20214;-61
2021/09/04 10:03:58;;;;;;;5.35;3.10;;;;;;;21.49;55.05;96810.72;5000230;28;20735;-61
2021/09/04 10:06:24;;;;;;;3.65;3.35;;;;;;;21.55;53.63;96809.53;5008062;28;20275;-61
2021/09/04 10:08:51;;;;;;;3.65;3.17;;;;;;;21.25;55.32;96802.88;4998537;28;20199;-62
2021/09/04 10:11:17;;;;;;;3.42;3.13;;;;;;;21.38;54.30;96796.78;5006110;28;20639;-61
2021/09/04 10:13:43;;;;;;;3.67;3.05;;;;;;;21.36;55.74;96800.81;5008694;28;20187;-68
2021/09/04 10:16:08;;;;;;;3.80;3.20;;;;;;;21.61;53.70;96800.34;5010968;28;20249;-61
2021/09/04 10:18:38;;;;;;;3.47;2.90;;;;;;;21.47;52.52;96792.31;5013836;28;20246;-65
2021/09/04 10:21:09;;;;;;;3.40;3.03;;;;;;;21.31;49.49;96796.38;5011021;28;20253;-61
2021/09/04 10:23:34;;;;;;;4.10;2.90;;;;;;;21.46;49.77;96797.94;5006005;28;20184;-61
2021/09/04 10:26:38;;;;;;;4.63;2.80;;;;;;;21.59;48.79;96802.50;5013821;28;20176;-62
2021/09/04 10:29:15;;;;;;;3.03;2.72;;;;;;;21.70;47.96;96798.56;4932565;29;20682;-65
2021/09/04 10:31:59;;;;;;;5.68;2.65;;;;;;;21.77;48.97;96798.97;4987306;28;20561;-62
2021/09/04 10:34:37;;;;;;;2.50;2.30;;;;;;;22.00;46.14;96793.72;5002474;28;20179;-62
2021/09/04 10:37:19;;;;;;;3.38;2.50;;;;;;;21.81;44.13;96796.47;5000150;28;20287;-62
2021/09/04 10:40:03;;;;;;;2.92;2.67;;;;;;;22.20;44.94;96799.41;5005791;28;20242;-62
2021/09/04 10:42:30;;;;;;;4.10;2.80;;;;;;;22.53;44.97;96786.66;4992742;28;20190;-63
2021/09/04 10:45:09;;;;;;;2.97;2.65;;;;;;;22.39;44.66;96785.91;5011428;28;20206;-62
2021/09/04 10:47:41;;;;;;;3.83;2.78;;;;;;;22.30;44.64;96793.84;5013685;28;20175;-62
2021/09/04 10:50:33;;;;;;;2.72;2.53;;;;;;;22.66;41.63;96788.47;5013337;28;20270;-62
2021/09/04 10:53:07;;;;;;;2.42;2.22;;;;;;;22.83;41.77;96787.84;5018666;28;20199;-62
2021/09/04 10:55:35;;;;;;;4.32;2.50;;;;;;;23.09;42.70;96779.97;5008533;28;20194;-62
2021/09/04 10:58:09;;;;;;;3.00;2.50;;;;;;;22.93;43.04;96774.22;5010740;28;20653;-62
2021/09/04 11:00:43;;;;;;;2.92;2.65;;;;;;;22.90;44.29;96771.38;5003590;28;20181;-62
2021/09/04 11:03:13;;;;;;;3.28;2.50;;;;;;;23.01;43.39;96770.03;4996858;28;20193;-63
2021/09/04 11:05:41;;;;;;;3.22;2.70;;;;;;;23.12;44.36;96768.66;5007040;28;20678;-62
2021/09/04 11:08:10;;;;;;;3.17;2.85;;;;;;;23.29;43.69;96768.75;4993835;28;20318;-62
2021/09/04 11:10:43;;;;;;;3.00;2.70;;;;;;;23.31;43.26;96768.44;4993795;28;20207;-62
2021/09/04 11:13:11;;;;;;;2.95;2.60;;;;;;;23.49;42.82;96764.75;4998370;28;20176;-62
2021/09/04 11:15:37;;;;;;;4.43;2.80;;;;;;;23.47;43.30;96765.06;5013052;28;20213;-62
2021/09/04 11:18:02;;;;;;;3.70;2.90;;;;;;;23.44;42.76;96771.00;5010377;28;20286;-62
2021/09/04 11:20:29;;;;;;;4.18;3.03;;;;;;;23.57;42.98;96766.69;4993695;28;20184;-62
2021/09/04 11:22:54;;;;;;;4.22;2.75;;;;;;;23.61;42.46;96764.97;4995096;28;20557;-67
2021/09/04 11:25:21;;;;;;;3.80;2.63;;;;;;;23.39;43.25;96767.69;5002279;28;20286;-62
2021/09/04 11:27:46;;;;;;;3.78;2.88;;;;;;;23.21;43.99;96769.50;5003882;28;20270;-62
2021/09/04 11:30:16;;;;;;;3.28;2.97;;;;;;;23.00;44.04;96771.13;5008213;28;20378;-62
2021/09/04 11:32:42;;;;;;;3.42;3.10;;;;;;;23.01;44.56;96764.69;5016834;28;20186;-66
2021/09/04 11:35:09;;;;;;;2.95;2.70;;;;;;;23.28;44.06;96766.38;4999700;28;20198;-62